메인 페이지
METAR-TAF:

METAR-TAF

공항 :

말라보, 적도 기니

위도: 03-45-18N, 경도: 08-42-31E, 고도: 23m

현재 날씨관측

예보는 21분 전, 09:00시(UTC)에 발표되었습니다.
남서3kt풍과 풍을 오가는
온도 30°C
습도 62%
기압 1012 hPa
시정: 4000m
고도 1200ft 상공 구름 조금
연무

METAR: FGSL 180900Z 23003KT 190V270 4000 HZ FEW012 30/22 Q1012 NOSIG

시각: 10:21 (09:21 UTC)

예보

예보는 4 시간 21분 전, 05:00시(UTC)에 발표되었습니다.
예보 대상 시간: 18일 06시부터 19일 12시까지 (UTC)
서남서6kt
시정: 7000m
고도 1200ft 상공 구름 조금
전환 중
18일 08시부터 18일 10시까지 (UTC)
시정: 4000m
뇌우, 연무
일시적
18일 12시부터 18일 18시까지 (UTC)
시정: 3000m
고도 1000ft 상공 구름 많음
고도 2000ft 상공 구름 조금, 적란운.
연무

TAF: FGSL 180500Z 1806/1912 24006KT 7000 FEW012 BECMG 1808/1810 4000 TS HZ TEMPO 1812/1818 3000 HZ BKN010 FEW020CB

4,000개 이상의 공항 관측 자료 및 예보 (METAR 및 TAF 보고).

지도상에서 검색 가능한 기상관측소가 노란 점과 빨간 점으로 표시되어 있습니다.

기상관측소 명을 보려면 표시 위로 마우스를 이동하세요.

날씨 관측과 예보를 보려면 클릭하세요.

지도 변경 : 확대하려면 엑스 표시가 있는 녹색 버튼, 축소하려면 빼기 표시가 있는 녹색 버튼, 다음 페이지의 지도를 보려면 녹색 화살표를 클릭하세요.


METAR-TAF: